LFSTLIPB

Guest
Details From LFST - Entzheim
To LIPB - Bolzano
Flight Number -
Tags Generated
Created
Modified
Stats Distance 195 nm / 362 km
Max Altitude 0 ft / 0 m
Waypoints 2
Social Downloads 1
Likes 0
Share VATSIM

Download

Looking for another format? Having issues loading an existing format? Contact us
Advertisement - Login to hide

Notes

Generated

Route

LFST LIPB

ID Type Via Altitude Latitude Longitude Leg Dist Tot Dist Heading (true) Name
O LFST APT - 0 ft / 0 m 48.53118˚ 7.61607˚ - 0 nm - -
O LIPB APT - 0 ft / 0 m 46.45463˚ 11.32653˚ 195 nm 195 nm 128° / 131° -

Altitude Profile

Advertisement - Login to hide

Weather


0- 5 10 15 20 25 30 35+ Temperature / ° C

Clouds and Precipitation
Forecast for 2017-12-16 00:00 UTC. Updated an hour ago

Ground ~20,000 ft ~40,000 ft Winds

LFST

Details ICAO LFST (SXB)
Name Entzheim
Region France
Timezone Europe/Paris (UTC+1.0)
Stats Elevation 504 ft / 154 m (AMSL)
Location 48.538335° 7.628265°
Runways 1
Magnetic Variation 2.104° E

METAR

LFST 152200Z AUTO 19005KT 9999 BKN058 OVC084 03/01 Q1001 TEMPO 3000 -RADZ BR BKN014

Decode

TAF

TAF LFST 151700Z 1518/1618 18007KT 9999 BKN040 TEMPO 1522/1612 3000 -RADZ BR BKN014 PROB30 TEMPO 1602/1610 -RASN BKN009 BECMG 1606/1609 31010KT

Decode

Departure Runways

ID Width Length Bearing (true) Bearing (mag) Surface Threshold Offset Overrun Length
05 148 ft / 45 m 7,899 ft / 2,408 m 48.60° 46.50° Asphalt 0 ft / 0 m 860 ft / 262 m
23 148 ft / 45 m 7,899 ft / 2,408 m 228.62° 226.52° Asphalt 0 ft / 0 m 902 ft / 275 m

LIPB

Details ICAO LIPB (BZO)
Name BOLZANO
Region Italy
Timezone Europe/Rome (UTC+1.0)
Stats Elevation 789 ft / 240 m (AMSL)
Location 46.458906° 11.326862°
Runways 2
Magnetic Variation 2.991° E

METAR

LIPB 152150Z 07001KT CAVOK 00/00 Q1000

Decode

TAF

TAF LIPB 151700Z 1518/1618 VRB05KT 8000 BKN050

Decode

Destination Runways

ID Width Length Bearing (true) Bearing (mag) Surface Threshold Offset Overrun Length
01 98 ft / 30 m 4,257 ft / 1,297 m 10.21° 7.22° Asphalt 0 ft / 0 m 0 ft / 0 m
01R 66 ft / 20 m 2,292 ft / 698 m 10.57° 7.58° Grass 0 ft / 0 m 0 ft / 0 m
19 98 ft / 30 m 4,257 ft / 1,297 m 190.22° 187.23° Asphalt 200 ft / 61 m 0 ft / 0 m
19L 66 ft / 20 m 2,292 ft / 698 m 190.58° 187.59° Grass 0 ft / 0 m 0 ft / 0 m

Approach Navaids

Runway Type Ident Frequency Range Bearing (true) Bearing (mag) Slope Elevation
01 Localiser IBZ 109.10 MHz 18 nm / 33 km 18.82° 15.82° - 789 ft / 240 m (AMSL)
01 DME IBZ 109.10 MHz 18 nm / 33 km - - - 789 ft / 240 m (AMSL)